Time;durP1;ratioP1;P1;durP2;ratioP2;P2;SDS_P1;SDS_P2;PMS_P1;PMS_P2;Temp;Humidity;BMP_temperature;BMP_pressure;BME280_temperature;BME280_humidity;BME280_pressure;Samples;Min_cycle;Max_cycle;Signal;HPM_P1;HPM_P2
2022/04/07 00:01:39;;;;;;;4.40;2.60;;;;;;;8.15;76.00;96695.97;4197235;28;20049;-72
2022/04/07 00:03:40;;;;;;;3.80;2.72;;;;;;;8.11;75.88;96692.47;4192924;28;20059;-72
2022/04/07 00:05:41;;;;;;;4.80;2.58;;;;;;;8.09;76.20;96689.31;4192518;28;20531;-72
2022/04/07 00:07:41;;;;;;;6.57;2.78;;;;;;;8.06;76.89;96690.13;4196886;28;20122;-72
2022/04/07 00:09:42;;;;;;;4.32;2.45;;;;;;;8.01;76.17;96688.56;4195038;28;20055;-72
2022/04/07 00:11:42;;;;;;;6.78;2.83;;;;;;;8.03;76.57;96688.19;4190963;28;20514;-72
2022/04/07 00:13:42;;;;;;;3.97;2.40;;;;;;;8.04;76.97;96690.53;4196521;28;20078;-72
2022/04/07 00:15:43;;;;;;;5.97;2.88;;;;;;;8.00;76.24;96689.75;4193524;28;20415;-72
2022/04/07 00:17:43;;;;;;;3.40;2.70;;;;;;;8.03;76.91;96694.47;4191272;28;20048;-72
2022/04/07 00:19:43;;;;;;;3.28;2.42;;;;;;;7.96;76.68;96682.72;4195157;28;20067;-72
2022/04/07 00:21:46;;;;;;;3.75;2.50;;;;;;;7.96;76.57;96689.03;4196872;28;20055;-72
2022/04/07 00:23:47;;;;;;;3.97;2.53;;;;;;;7.99;76.89;96681.91;4195212;28;20374;-72
2022/04/07 00:25:47;;;;;;;4.55;2.70;;;;;;;7.98;76.64;96681.13;4202636;28;20070;-72
2022/04/07 00:27:48;;;;;;;4.35;2.55;;;;;;;8.02;77.23;96684.63;4195879;28;20130;-72
2022/04/07 00:29:48;;;;;;;4.18;2.63;;;;;;;8.03;76.96;96679.94;4194889;28;20508;-71
2022/04/07 00:31:56;;;;;;;5.18;2.70;;;;;;;8.00;76.96;96673.25;4195821;28;20656;-71
2022/04/07 00:33:56;;;;;;;5.07;2.60;;;;;;;8.05;77.66;96677.56;4197612;28;20404;-71
2022/04/07 00:35:56;;;;;;;3.42;2.58;;;;;;;8.09;76.83;96670.03;4195945;28;20083;-71
2022/04/07 00:37:56;;;;;;;3.80;2.60;;;;;;;8.14;76.51;96664.09;4193993;28;20079;-71
2022/04/07 00:39:58;;;;;;;3.95;2.35;;;;;;;8.12;77.50;96658.22;4197908;28;20131;-71
2022/04/07 00:41:58;;;;;;;4.75;2.85;;;;;;;8.09;77.67;96650.75;4197848;28;20369;-71
2022/04/07 00:43:58;;;;;;;3.72;2.60;;;;;;;8.08;77.48;96663.75;4192411;28;20033;-71
2022/04/07 00:46:00;;;;;;;3.95;2.67;;;;;;;8.08;77.50;96649.97;4196376;28;20721;-71
2022/04/07 00:48:00;;;;;;;6.93;2.78;;;;;;;8.12;77.27;96656.25;4195275;28;20102;-71
2022/04/07 00:50:01;;;;;;;3.47;2.35;;;;;;;8.07;77.39;96634.63;4197160;28;20102;-72
2022/04/07 00:52:01;;;;;;;3.60;2.33;;;;;;;8.07;77.46;96634.63;4194889;28;20105;-71
2022/04/07 00:54:02;;;;;;;4.25;2.60;;;;;;;8.09;77.57;96632.25;4200267;28;20547;-72
2022/04/07 00:56:03;;;;;;;2.85;2.20;;;;;;;8.10;77.32;96636.56;4196166;28;20036;-72
2022/04/07 00:58:03;;;;;;;2.75;2.17;;;;;;;8.10;76.68;96617.28;4192320;28;20119;-72
2022/04/07 01:00:05;;;;;;;2.75;2.22;;;;;;;8.10;77.49;96622.00;4200757;28;20032;-72
2022/04/07 01:02:06;;;;;;;3.35;2.58;;;;;;;8.10;78.35;96627.53;4194665;28;20031;-72
2022/04/07 01:04:07;;;;;;;4.97;2.75;;;;;;;8.18;78.10;96634.53;4192885;28;20032;-71
2022/04/07 01:06:07;;;;;;;3.60;2.40;;;;;;;8.22;78.24;96627.03;4194692;28;20046;-71
2022/04/07 01:08:09;;;;;;;3.38;2.45;;;;;;;8.24;77.38;96623.88;4195686;28;20035;-72
2022/04/07 01:10:10;;;;;;;5.35;2.78;;;;;;;8.25;78.16;96622.69;4197489;28;20483;-72
2022/04/07 01:12:10;;;;;;;5.20;2.70;;;;;;;8.24;78.00;96621.88;4193224;28;20024;-71
2022/04/07 01:14:11;;;;;;;4.88;2.50;;;;;;;8.33;77.87;96627.72;4195420;28;20032;-72
2022/04/07 01:16:12;;;;;;;4.13;2.33;;;;;;;8.37;78.40;96619.47;4198607;28;20094;-71
2022/04/07 01:18:14;;;;;;;3.53;2.33;;;;;;;8.37;77.33;96608.44;4193163;28;20036;-72
2022/04/07 01:20:14;;;;;;;4.90;2.58;;;;;;;8.40;77.76;96615.88;4197209;28;20419;-71
2022/04/07 01:22:15;;;;;;;4.97;3.20;;;;;;;8.40;78.31;96615.88;4196214;28;20057;-71
2022/04/07 01:24:18;;;;;;;5.28;2.95;;;;;;;8.38;77.70;96607.25;4193977;28;20036;-71
2022/04/07 01:26:18;;;;;;;6.40;2.70;;;;;;;8.39;78.54;96614.31;4194425;28;20024;-71
2022/04/07 01:28:19;;;;;;;5.22;2.53;;;;;;;8.42;77.36;96596.94;4194085;28;20029;-71
2022/04/07 01:30:19;;;;;;;3.90;2.50;;;;;;;8.41;77.87;96589.88;4191802;28;20033;-71
2022/04/07 01:32:24;;;;;;;5.03;2.85;;;;;;;8.41;78.93;96584.38;4198296;28;20128;-72
2022/04/07 01:34:26;;;;;;;3.70;2.50;;;;;;;8.43;78.91;96588.28;4197374;28;20036;-71
2022/04/07 01:36:28;;;;;;;3.40;2.33;;;;;;;8.42;79.08;96594.19;4194925;28;20489;-72
2022/04/07 01:38:28;;;;;;;2.83;2.35;;;;;;;8.42;80.34;96592.22;4188530;28;20044;-72
2022/04/07 01:40:33;;;;;;;4.00;2.58;;;;;;;8.41;80.06;96587.91;4196855;28;20036;-72
2022/04/07 01:42:33;;;;;;;3.08;2.47;;;;;;;8.42;80.09;96583.94;4196869;28;20153;-71
2022/04/07 01:44:38;;;;;;;5.03;3.15;;;;;;;8.38;80.21;96583.22;4197195;28;20473;-72
2022/04/07 01:46:39;;;;;;;3.58;2.33;;;;;;;8.30;79.87;96578.94;4192987;28;20234;-71
2022/04/07 01:48:42;;;;;;;4.60;2.30;;;;;;;8.29;81.03;96576.59;4201159;28;20387;-71
2022/04/07 01:50:44;;;;;;;3.50;2.47;;;;;;;8.24;79.60;96571.53;4195048;28;20039;-72
2022/04/07 01:52:47;;;;;;;3.47;2.70;;;;;;;8.26;80.54;96572.66;4196232;28;20048;-72
2022/04/07 01:54:48;;;;;;;3.60;2.40;;;;;;;8.29;81.80;96574.63;4194669;28;20368;-71
2022/04/07 01:56:50;;;;;;;2.88;2.53;;;;;;;8.29;81.47;96563.59;4194023;28;20047;-72
2022/04/07 01:58:51;;;;;;;4.13;2.60;;;;;;;8.28;82.53;96545.50;4195622;28;20131;-71
2022/04/07 02:00:51;;;;;;;4.82;2.63;;;;;;;8.25;82.78;96562.84;4193650;28;20084;-71
2022/04/07 02:02:51;;;;;;;2.85;2.28;;;;;;;8.27;83.32;96557.69;4195905;28;20045;-72
2022/04/07 02:04:56;;;;;;;4.00;2.50;;;;;;;8.31;83.98;96547.44;4194489;28;20039;-72
2022/04/07 02:06:58;;;;;;;4.30;2.38;;;;;;;8.31;83.18;96568.69;4195098;28;20496;-71
2022/04/07 02:08:59;;;;;;;4.50;3.30;;;;;;;8.26;83.67;96567.16;4194748;28;20048;-72
2022/04/07 02:10:59;;;;;;;4.53;2.30;;;;;;;8.29;81.70;96562.81;4195955;28;20028;-71
2022/04/07 02:13:00;;;;;;;4.30;2.20;;;;;;;8.24;82.50;96564.03;4194910;28;20051;-72
2022/04/07 02:15:00;;;;;;;2.88;2.40;;;;;;;8.25;82.68;96553.78;4194312;28;20048;-72
2022/04/07 02:17:01;;;;;;;3.30;2.55;;;;;;;8.27;81.62;96557.69;4194137;28;20047;-72
2022/04/07 02:19:01;;;;;;;4.50;2.42;;;;;;;8.24;81.73;96555.00;4196611;28;20040;-71
2022/04/07 02:21:02;;;;;;;4.30;2.45;;;;;;;8.23;80.62;96543.19;4191773;28;20040;-72
2022/04/07 02:23:03;;;;;;;3.45;2.50;;;;;;;8.23;80.57;96523.91;4200533;28;20430;-71
2022/04/07 02:25:04;;;;;;;4.57;2.25;;;;;;;8.23;80.81;96518.41;4194232;28;20040;-72
2022/04/07 02:27:04;;;;;;;2.95;2.33;;;;;;;8.13;80.17;96509.06;4188826;28;20258;-71
2022/04/07 02:29:05;;;;;;;2.90;2.03;;;;;;;8.14;80.24;96518.09;4193312;28;20484;-72
2022/04/07 02:31:06;;;;;;;5.05;2.53;;;;;;;8.07;78.83;96521.72;4194828;28;20070;-71
2022/04/07 02:33:06;;;;;;;4.40;2.35;;;;;;;8.07;78.65;96521.72;4195021;28;20051;-71
2022/04/07 02:35:08;;;;;;;4.10;2.10;;;;;;;8.03;78.83;96520.97;4191745;28;20041;-71
2022/04/07 02:37:10;;;;;;;4.10;2.33;;;;;;;8.08;78.38;96516.97;4192894;28;20076;-71
2022/04/07 02:39:10;;;;;;;2.75;2.15;;;;;;;8.09;78.69;96511.06;4195671;28;20405;-71
2022/04/07 02:41:10;;;;;;;4.75;2.33;;;;;;;8.09;78.36;96513.03;4191332;28;20048;-71
2022/04/07 02:43:11;;;;;;;3.33;2.45;;;;;;;8.08;78.51;96503.97;4192521;28;20045;-71
2022/04/07 02:45:11;;;;;;;3.65;2.40;;;;;;;8.06;78.54;96508.34;4198820;28;20442;-71
2022/04/07 02:47:11;;;;;;;3.17;2.10;;;;;;;8.01;78.60;96514.28;4193263;28;20048;-71
2022/04/07 02:49:12;;;;;;;3.10;2.30;;;;;;;8.01;79.09;96501.31;4194481;28;20037;-71
2022/04/07 02:51:12;;;;;;;3.42;2.28;;;;;;;8.03;78.47;96506.44;4193603;28;20457;-71
2022/04/07 02:53:14;;;;;;;2.85;2.20;;;;;;;8.01;79.03;96500.53;4193202;28;20067;-71
2022/04/07 02:55:14;;;;;;;3.13;2.30;;;;;;;7.99;78.65;96503.69;4191484;28;20052;-71
2022/04/07 02:57:14;;;;;;;5.05;2.17;;;;;;;8.02;78.58;96504.84;4197706;28;20055;-71
2022/04/07 02:59:15;;;;;;;3.58;2.38;;;;;;;8.02;78.90;96507.59;4194606;28;20048;-71
2022/04/07 03:01:15;;;;;;;3.10;2.33;;;;;;;7.97;78.45;96511.59;4197182;28;20075;-71
2022/04/07 03:03:15;;;;;;;3.55;2.22;;;;;;;7.95;78.61;96496.66;4195871;28;20472;-72
2022/04/07 03:05:16;;;;;;;3.70;2.05;;;;;;;7.97;78.38;96502.53;4198044;28;20131;-71
2022/04/07 03:07:16;;;;;;;2.88;2.28;;;;;;;7.97;77.93;96502.53;4193291;28;20109;-71
2022/04/07 03:09:20;;;;;;;4.43;2.22;;;;;;;8.03;77.39;96496.19;4191385;28;20068;-71
2022/04/07 03:11:21;;;;;;;3.47;2.05;;;;;;;8.01;77.31;96492.25;4198505;28;20040;-72
2022/04/07 03:13:21;;;;;;;3.22;2.03;;;;;;;8.07;77.35;96496.13;4196606;28;20043;-71
2022/04/07 03:15:21;;;;;;;3.17;2.15;;;;;;;8.07;77.17;96502.44;4192261;28;20533;-71
2022/04/07 03:17:21;;;;;;;4.65;2.17;;;;;;;8.11;76.98;96499.66;4190229;28;20028;-71
2022/04/07 03:19:22;;;;;;;4.30;2.63;;;;;;;8.17;76.79;96484.22;4194050;28;20513;-71
2022/04/07 03:21:22;;;;;;;4.45;2.50;;;;;;;8.23;75.98;96479.84;4193703;28;20109;-71
2022/04/07 03:23:23;;;;;;;3.55;2.42;;;;;;;8.23;76.36;96493.59;4190851;28;20584;-71
2022/04/07 03:25:23;;;;;;;4.10;2.20;;;;;;;8.19;76.71;96495.59;4199079;28;20732;-71
2022/04/07 03:27:24;;;;;;;4.68;2.17;;;;;;;8.17;76.08;96489.72;4199337;28;20178;-71
2022/04/07 03:29:25;;;;;;;3.10;2.15;;;;;;;8.20;75.54;96477.91;4195315;28;20123;-71
2022/04/07 03:31:25;;;;;;;4.20;2.22;;;;;;;8.19;75.95;96476.31;4200176;28;20296;-71
2022/04/07 03:33:25;;;;;;;4.03;2.15;;;;;;;8.22;75.42;96472.75;4193290;28;20048;-72
2022/04/07 03:35:26;;;;;;;4.80;2.28;;;;;;;8.25;75.11;96462.88;4200206;28;20545;-71
2022/04/07 03:37:26;;;;;;;3.25;2.15;;;;;;;8.26;75.55;96451.44;4193728;28;20056;-72
2022/04/07 03:39:26;;;;;;;4.70;1.98;;;;;;;8.24;75.38;96451.09;4198611;28;20137;-71
2022/04/07 03:41:28;;;;;;;5.10;2.47;;;;;;;8.27;74.99;96443.97;4199779;28;20174;-71
2022/04/07 03:43:28;;;;;;;2.72;1.98;;;;;;;8.23;75.09;96429.47;4194273;28;20050;-71
2022/04/07 03:45:28;;;;;;;3.47;1.90;;;;;;;8.29;75.15;96428.59;4194564;28;20048;-71
2022/04/07 03:47:30;;;;;;;2.33;1.80;;;;;;;8.27;75.09;96430.19;4196257;28;20044;-71
2022/04/07 03:49:30;;;;;;;3.08;1.85;;;;;;;8.23;74.81;96424.72;4196323;28;20102;-71
2022/04/07 03:51:31;;;;;;;2.60;1.90;;;;;;;8.20;74.77;96420.06;4197135;28;20797;-71
2022/04/07 03:53:31;;;;;;;3.55;1.83;;;;;;;8.17;75.35;96413.38;4197307;28;20032;-71
2022/04/07 03:55:31;;;;;;;4.40;2.20;;;;;;;8.18;75.13;96422.41;4190066;28;20371;-71
2022/04/07 03:57:32;;;;;;;6.53;2.70;;;;;;;8.26;75.24;96404.63;4199344;28;20150;-72
2022/04/07 03:59:37;;;;;;;2.30;1.85;;;;;;;8.37;74.65;96397.03;4193727;28;20036;-71
2022/04/07 04:01:39;;;;;;;3.58;2.10;;;;;;;8.31;74.82;96393.16;4197786;28;20063;-71
2022/04/07 04:03:39;;;;;;;3.33;2.05;;;;;;;8.32;74.66;96394.69;4199795;28;20044;-71
2022/04/07 04:05:40;;;;;;;2.92;2.00;;;;;;;8.30;74.98;96405.38;4198765;28;20046;-71
2022/04/07 04:07:40;;;;;;;3.10;1.90;;;;;;;8.34;74.93;96392.31;4196662;28;20049;-71
2022/04/07 04:09:40;;;;;;;4.50;2.30;;;;;;;8.35;74.54;96388.38;4196214;28;20036;-71
2022/04/07 04:11:41;;;;;;;3.42;2.50;;;;;;;8.40;74.78;96389.91;4197909;28;20045;-71
2022/04/07 04:13:41;;;;;;;2.70;1.90;;;;;;;8.39;74.93;96397.41;4196767;28;20087;-71
2022/04/07 04:15:42;;;;;;;2.72;2.17;;;;;;;8.40;75.06;96390.69;4195485;28;20080;-71
2022/04/07 04:17:42;;;;;;;4.22;2.20;;;;;;;8.34;75.78;96377.75;4199209;28;20059;-71
2022/04/07 04:19:42;;;;;;;3.70;2.17;;;;;;;8.37;75.71;96369.47;4197696;28;20044;-71
2022/04/07 04:21:43;;;;;;;3.13;1.98;;;;;;;8.35;75.70;96360.06;4196323;28;20052;-71
2022/04/07 04:23:43;;;;;;;2.65;1.77;;;;;;;8.31;75.59;96359.31;4198668;28;20102;-71
2022/04/07 04:25:43;;;;;;;2.10;1.70;;;;;;;8.27;76.39;96355.81;4194738;28;20496;-71
2022/04/07 04:27:43;;;;;;;2.60;1.88;;;;;;;8.30;76.34;96368.78;4195753;28;20473;-71
2022/04/07 04:29:44;;;;;;;2.40;1.88;;;;;;;8.24;76.09;96354.66;4196529;28;20055;-71
2022/04/07 04:31:44;;;;;;;2.65;1.67;;;;;;;8.21;76.88;96355.50;4196355;28;20048;-72
2022/04/07 04:33:44;;;;;;;2.28;1.75;;;;;;;8.17;77.27;96360.25;4202546;28;20055;-71
2022/04/07 04:35:45;;;;;;;3.72;2.13;;;;;;;8.15;76.76;96371.69;4196248;28;20227;-71
2022/04/07 04:37:45;;;;;;;2.40;1.60;;;;;;;8.18;77.26;96361.81;4191651;28;20036;-71
2022/04/07 04:39:45;;;;;;;2.67;1.90;;;;;;;8.11;77.26;96368.22;4196315;28;20483;-71
2022/04/07 04:41:46;;;;;;;2.65;1.63;;;;;;;8.08;78.18;96366.28;4195444;28;20036;-71
2022/04/07 04:43:47;;;;;;;3.47;1.90;;;;;;;8.07;79.21;96350.16;4195438;28;20123;-71
2022/04/07 04:45:47;;;;;;;3.58;1.60;;;;;;;8.03;79.79;96339.22;4196073;28;20036;-71
2022/04/07 04:47:49;;;;;;;2.08;1.73;;;;;;;7.99;80.40;96343.19;4195408;28;20155;-71
2022/04/07 04:49:50;;;;;;;2.63;1.70;;;;;;;7.89;80.99;96347.63;4192254;28;20486;-71
2022/04/07 04:51:50;;;;;;;2.58;1.70;;;;;;;7.90;80.18;96338.19;4193351;28;20045;-71
2022/04/07 04:53:50;;;;;;;2.33;1.75;;;;;;;7.87;80.33;96337.03;4115797;28;20342;-73
2022/04/07 04:55:51;;;;;;;2.22;1.48;;;;;;;7.88;81.24;96333.09;4200569;28;20078;-71
2022/04/07 04:57:51;;;;;;;2.35;1.60;;;;;;;7.87;81.57;96328.78;4193357;28;20036;-71
2022/04/07 04:59:52;;;;;;;1.80;1.63;;;;;;;7.89;81.98;96331.91;4191639;28;20041;-71
2022/04/07 05:01:52;;;;;;;2.67;1.50;;;;;;;7.94;81.15;96338.91;4196196;28;20495;-71
2022/04/07 05:03:52;;;;;;;2.20;1.23;;;;;;;7.91;81.98;96336.22;4197033;28;20261;-71
2022/04/07 05:05:52;;;;;;;1.20;1.05;;;;;;;7.95;82.51;96340.50;4194432;28;20388;-71
2022/04/07 05:07:53;;;;;;;1.10;1.00;;;;;;;7.96;83.34;96322.78;4201199;28;20055;-71
2022/04/07 05:09:56;;;;;;;2.15;1.20;;;;;;;7.91;82.43;96342.50;4195362;28;20036;-71
2022/04/07 05:11:56;;;;;;;1.20;1.00;;;;;;;7.91;83.83;96327.94;4196101;28;20125;-71
2022/04/07 05:13:57;;;;;;;1.38;1.05;;;;;;;7.88;84.40;96326.81;4193521;28;20136;-72
2022/04/07 05:15:57;;;;;;;1.35;1.10;;;;;;;7.88;83.87;96332.31;4193902;28;20131;-71
2022/04/07 05:17:57;;;;;;;1.35;0.90;;;;;;;7.86;85.32;96332.75;4197406;28;20059;-71
2022/04/07 05:19:58;;;;;;;1.40;1.00;;;;;;;7.90;85.98;96329.94;4193946;28;20087;-71
2022/04/07 05:21:58;;;;;;;3.78;0.90;;;;;;;7.91;85.50;96342.50;4196589;28;20154;-71
2022/04/07 05:23:58;;;;;;;1.55;0.93;;;;;;;7.86;87.37;96342.94;4195826;28;20484;-72
2022/04/07 05:25:59;;;;;;;1.30;1.10;;;;;;;7.86;86.46;96324.47;4192648;28;20033;-71
2022/04/07 05:27:59;;;;;;;0.98;0.85;;;;;;;7.86;85.38;96335.50;4196827;28;20048;-71
2022/04/07 05:30:00;;;;;;;0.95;0.82;;;;;;;7.86;85.67;96343.75;4195307;28;20127;-71
2022/04/07 05:32:00;;;;;;;1.95;0.90;;;;;;;7.86;85.85;96335.50;4195329;28;20052;-73
2022/04/07 05:34:00;;;;;;;0.80;0.80;;;;;;;7.91;86.06;96338.97;4189840;28;20044;-71
2022/04/07 05:36:01;;;;;;;0.80;0.73;;;;;;;7.94;86.17;96340.88;4197337;28;20040;-72
2022/04/07 05:38:02;;;;;;;1.10;0.77;;;;;;;7.95;85.71;96354.25;4192173;28;20024;-72
2022/04/07 05:40:03;;;;;;;1.10;0.80;;;;;;;8.00;84.78;96344.75;4192610;28;20032;-72
2022/04/07 05:42:05;;;;;;;0.77;0.77;;;;;;;7.99;84.90;96340.44;4201273;28;20439;-74
2022/04/07 05:44:06;;;;;;;0.73;0.70;;;;;;;8.04;83.24;96337.22;4191715;28;20028;-74
2022/04/07 05:46:06;;;;;;;0.68;0.68;;;;;;;8.11;84.94;96328.88;4189679;28;20086;-73
2022/04/07 05:48:06;;;;;;;1.85;0.80;;;;;;;8.16;84.43;96333.91;4194102;28;20028;-73
2022/04/07 05:50:08;;;;;;;1.42;1.00;;;;;;;8.20;84.84;96334.66;4195955;28;20576;-73
2022/04/07 05:52:08;;;;;;;1.05;0.82;;;;;;;8.26;83.45;96323.94;4193309;28;20641;-73
2022/04/07 05:54:09;;;;;;;1.77;0.82;;;;;;;8.27;83.24;96329.03;4197371;28;20075;-73
2022/04/07 05:56:09;;;;;;;0.93;0.80;;;;;;;8.23;82.88;96317.28;4190658;28;20063;-73
2022/04/07 05:58:09;;;;;;;17.13;1.90;;;;;;;8.24;83.57;96315.31;4192854;28;20024;-73
2022/04/07 06:00:16;;;;;;;1.10;1.00;;;;;;;8.25;82.84;96317.66;4192342;28;20027;-73
2022/04/07 06:02:16;;;;;;;1.30;0.95;;;;;;;8.26;83.04;96312.91;4192574;28;20041;-73
2022/04/07 06:04:17;;;;;;;1.67;0.93;;;;;;;8.28;82.47;96314.09;4198002;28;20032;-73
2022/04/07 06:06:17;;;;;;;2.22;1.10;;;;;;;8.32;83.40;96325.81;4193227;28;20028;-73
2022/04/07 06:08:18;;;;;;;1.40;0.90;;;;;;;8.31;83.54;96313.25;4190624;28;20520;-73
2022/04/07 06:10:19;;;;;;;1.70;1.20;;;;;;;8.31;84.41;96320.72;4191240;28;20147;-73
2022/04/07 06:12:19;;;;;;;1.10;0.98;;;;;;;8.37;81.95;96308.09;4193901;28;20459;-73
2022/04/07 06:14:19;;;;;;;1.92;1.20;;;;;;;8.29;84.39;96301.09;4193776;28;20040;-73
2022/04/07 06:16:20;;;;;;;1.20;1.10;;;;;;;8.26;84.43;96299.16;4188631;28;20035;-73
2022/04/07 06:18:20;;;;;;;1.80;1.10;;;;;;;8.25;83.11;96290.09;4195062;28;20503;-73
2022/04/07 06:20:21;;;;;;;2.65;1.15;;;;;;;8.26;83.75;96288.13;4195886;28;20044;-73
2022/04/07 06:22:21;;;;;;;0.95;0.88;;;;;;;8.27;84.34;96270.41;4191959;28;20583;-73
2022/04/07 06:24:22;;;;;;;1.33;0.80;;;;;;;8.31;83.69;96271.91;4199575;28;20139;-73
2022/04/07 06:26:23;;;;;;;0.70;0.70;;;;;;;8.33;83.55;96266.75;4193470;28;20465;-73
2022/04/07 06:28:24;;;;;;;1.10;0.90;;;;;;;8.33;83.01;96254.97;4190973;28;20083;-73
2022/04/07 06:30:24;;;;;;;0.70;0.70;;;;;;;8.38;83.19;96252.56;4197281;28;20068;-73
2022/04/07 06:32:24;;;;;;;1.75;0.80;;;;;;;8.42;82.01;96241.47;4195772;28;20040;-73
2022/04/07 06:34:25;;;;;;;1.25;0.90;;;;;;;8.54;82.50;96246.41;4192625;28;20131;-73
2022/04/07 06:36:26;;;;;;;0.77;0.77;;;;;;;8.60;82.51;96243.94;4191188;28;20497;-73
2022/04/07 06:38:26;;;;;;;0.93;0.82;;;;;;;8.67;82.28;96224.53;4193662;28;20127;-73
2022/04/07 06:40:28;;;;;;;1.67;0.70;;;;;;;8.76;82.20;96232.25;4192764;28;20043;-73
2022/04/07 06:42:29;;;;;;;0.80;0.80;;;;;;;8.79;80.96;96223.94;4193697;28;20674;-73
2022/04/07 06:44:29;;;;;;;1.52;1.00;;;;;;;8.80;81.21;96216.44;4194462;28;20113;-73
2022/04/07 06:46:29;;;;;;;1.85;0.80;;;;;;;8.88;80.97;96220.63;4195781;28;20131;-73
2022/04/07 06:48:30;;;;;;;1.35;0.98;;;;;;;8.85;79.86;96204.91;4191633;28;20534;-73
2022/04/07 06:50:31;;;;;;;1.30;1.00;;;;;;;8.89;79.95;96211.94;4193259;28;20039;-73
2022/04/07 06:52:32;;;;;;;1.35;1.15;;;;;;;8.98;80.08;96225.16;4194452;28;20028;-73
2022/04/07 06:54:32;;;;;;;1.35;1.02;;;;;;;9.02;79.19;96220.38;4192516;28;20721;-73
2022/04/07 06:56:32;;;;;;;2.17;1.10;;;;;;;9.08;79.43;96224.19;4195939;28;20196;-73
2022/04/07 06:58:33;;;;;;;1.23;0.90;;;;;;;9.08;79.02;96207.63;4197627;28;20087;-73
2022/04/07 07:00:40;;;;;;;1.50;1.00;;;;;;;9.11;78.89;96195.78;4195503;28;20032;-73
2022/04/07 07:02:40;;;;;;;1.10;1.00;;;;;;;9.15;78.02;96195.69;4197153;28;20501;-73
2022/04/07 07:04:41;;;;;;;2.05;1.20;;;;;;;9.15;77.47;96201.19;4189323;28;20044;-73
2022/04/07 07:06:41;;;;;;;1.40;1.08;;;;;;;9.23;78.37;96200.63;4193819;28;20040;-73
2022/04/07 07:08:42;;;;;;;2.53;1.17;;;;;;;9.28;78.77;96200.16;4195065;28;20045;-73
2022/04/07 07:10:49;;;;;;;1.52;1.00;;;;;;;9.20;78.43;96195.97;4190689;28;20055;-73
2022/04/07 07:12:51;;;;;;;1.05;0.95;;;;;;;9.21;78.39;96189.25;4195788;28;20048;-73
2022/04/07 07:14:51;;;;;;;1.40;1.10;;;;;;;9.22;79.20;96181.75;4193968;28;20032;-73
2022/04/07 07:16:51;;;;;;;0.80;0.80;;;;;;;9.22;79.20;96176.25;4193219;28;20079;-73
2022/04/07 07:18:52;;;;;;;1.45;0.82;;;;;;;9.27;79.18;96173.00;4188785;28;20041;-73
2022/04/07 07:20:52;;;;;;;0.88;0.88;;;;;;;9.28;79.19;96183.59;4194044;28;20434;-73
2022/04/07 07:22:53;;;;;;;0.73;0.70;;;;;;;9.38;78.90;96167.25;4192657;28;20430;-73
2022/04/07 07:24:53;;;;;;;0.80;0.80;;;;;;;9.41;78.21;96158.09;4197032;28;20044;-73
2022/04/07 07:26:53;;;;;;;1.10;0.60;;;;;;;9.32;76.99;96152.38;4194789;28;20071;-73
2022/04/07 07:28:54;;;;;;;0.70;0.70;;;;;;;9.28;77.49;96146.94;4195323;28;20283;-73
2022/04/07 07:30:54;;;;;;;0.80;0.80;;;;;;;9.38;77.75;96156.22;4192550;28;20043;-73
2022/04/07 07:32:54;;;;;;;1.27;1.00;;;;;;;9.41;76.84;96136.03;4193553;28;20039;-73
2022/04/07 07:34:54;;;;;;;1.08;0.90;;;;;;;9.46;77.36;96136.31;4193244;28;20143;-73
2022/04/07 07:36:55;;;;;;;1.15;0.77;;;;;;;9.62;76.90;96123.75;4194255;28;20044;-73
2022/04/07 07:38:55;;;;;;;2.05;1.35;;;;;;;9.72;75.62;96133.78;4189790;28;20044;-73
2022/04/07 07:40:56;;;;;;;1.13;1.02;;;;;;;9.82;75.83;96127.22;4195238;28;20040;-73
2022/04/07 07:42:56;;;;;;;1.67;1.15;;;;;;;9.92;73.31;96109.63;4194547;28;20326;-73
2022/04/07 07:44:57;;;;;;;1.85;1.25;;;;;;;9.96;73.94;96112.31;4192305;28;20123;-73
2022/04/07 07:46:57;;;;;;;1.38;1.10;;;;;;;10.02;73.49;96096.78;4193535;28;20041;-73
2022/04/07 07:48:58;;;;;;;1.77;1.05;;;;;;;10.03;73.17;96085.28;4193973;28;20211;-73
2022/04/07 07:50:59;;;;;;;1.75;1.17;;;;;;;9.98;72.79;96071.22;4189611;28;20075;-73
2022/04/07 07:53:00;;;;;;;2.22;1.10;;;;;;;10.04;73.20;96063.97;4188509;28;20043;-73
2022/04/07 07:55:01;;;;;;;1.40;0.98;;;;;;;10.09;72.49;96068.97;4193471;28;20113;-73
2022/04/07 07:57:02;;;;;;;2.08;0.98;;;;;;;10.12;72.42;96049.53;4195143;28;20044;-73
2022/04/07 07:59:02;;;;;;;3.47;1.17;;;;;;;10.10;72.75;96063.03;4192040;28;20042;-73
2022/04/07 08:01:03;;;;;;;1.95;1.00;;;;;;;10.11;72.09;96058.28;4193949;28;20094;-73
2022/04/07 08:03:03;;;;;;;1.15;1.05;;;;;;;10.10;72.74;96063.03;4193990;28;20471;-73
2022/04/07 08:05:06;;;;;;;1.85;1.20;;;;;;;10.09;72.57;96050.41;4195719;28;20040;-73
2022/04/07 08:07:07;;;;;;;1.95;1.10;;;;;;;10.05;73.24;96051.72;4195117;28;20052;-73
2022/04/07 08:09:09;;;;;;;1.45;0.90;;;;;;;10.12;73.14;96068.88;4195226;28;20064;-73
2022/04/07 08:11:10;;;;;;;1.27;1.00;;;;;;;10.14;72.53;96065.69;4192708;28;20464;-73
2022/04/07 08:13:10;;;;;;;2.55;1.20;;;;;;;10.37;70.96;96053.69;4201474;28;20040;-73
2022/04/07 08:15:11;;;;;;;4.13;1.05;;;;;;;10.46;71.75;96069.63;4197332;28;20064;-73
2022/04/07 08:17:11;;;;;;;1.98;0.90;;;;;;;10.59;71.92;96051.09;4195737;28;20076;-73
2022/04/07 08:19:11;;;;;;;1.23;0.90;;;;;;;10.65;71.52;96039.06;4195357;28;20132;-73
2022/04/07 08:21:12;;;;;;;2.97;1.00;;;;;;;10.71;71.51;96046.84;4197520;28;20063;-73
2022/04/07 08:23:12;;;;;;;0.80;0.80;;;;;;;10.85;71.25;96040.91;4199110;28;20443;-73
2022/04/07 08:25:13;;;;;;;1.95;0.95;;;;;;;10.93;70.29;96036.72;4196408;28;20330;-73
2022/04/07 08:27:13;;;;;;;0.80;0.80;;;;;;;11.03;70.68;96035.66;4199666;28;20072;-73
2022/04/07 08:29:14;;;;;;;1.52;0.82;;;;;;;10.90;70.19;96043.91;4196840;28;20544;-73
2022/04/07 08:31:14;;;;;;;0.80;0.80;;;;;;;10.80;70.51;96022.84;4199384;28;20079;-73
2022/04/07 08:33:15;;;;;;;1.23;0.90;;;;;;;10.84;70.84;96029.06;4199669;28;20476;-73
2022/04/07 08:35:15;;;;;;;1.45;0.90;;;;;;;10.85;70.63;96024.31;4196483;28;20142;-73
2022/04/07 08:37:15;;;;;;;1.05;0.70;;;;;;;10.82;70.52;96022.41;4195333;28;20127;-73
2022/04/07 08:39:16;;;;;;;0.68;0.60;;;;;;;10.63;70.90;96016.63;4195960;28;20484;-73
2022/04/07 08:41:17;;;;;;;1.23;0.80;;;;;;;10.56;70.88;96013.28;4196078;28;20489;-73
2022/04/07 08:43:18;;;;;;;0.70;0.70;;;;;;;10.41;72.00;96016.41;4196505;28;20114;-73
2022/04/07 08:45:19;;;;;;;0.70;0.70;;;;;;;10.39;72.52;96004.25;4196431;28;20049;-73
2022/04/07 08:47:21;;;;;;;1.02;0.80;;;;;;;10.41;73.18;96015.66;4194824;28;20041;-73
2022/04/07 08:49:23;;;;;;;2.30;0.70;;;;;;;10.37;73.81;96006.69;4197373;28;20036;-73
2022/04/07 08:51:27;;;;;;;0.70;0.70;;;;;;;10.42;74.08;95997.84;4191742;28;20043;-73
2022/04/07 08:53:28;;;;;;;0.88;0.65;;;;;;;10.41;73.88;96005.38;4196445;28;20045;-73
2022/04/07 08:55:28;;;;;;;0.70;0.63;;;;;;;10.41;71.84;96002.59;4195502;28;20039;-73
2022/04/07 08:57:31;;;;;;;0.60;0.60;;;;;;;10.46;72.72;95981.19;4198150;28;20044;-73
2022/04/07 08:59:31;;;;;;;0.60;0.60;;;;;;;10.53;73.71;95967.16;4196256;28;20507;-73
2022/04/07 09:01:31;;;;;;;0.60;0.60;;;;;;;10.67;72.41;95983.31;4193635;28;20056;-73
2022/04/07 09:03:32;;;;;;;0.60;0.60;;;;;;;10.72;72.67;95987.56;4195513;28;20056;-73
2022/04/07 09:05:32;;;;;;;0.60;0.60;;;;;;;10.83;72.42;95986.00;4200674;28;20040;-73
2022/04/07 09:07:33;;;;;;;0.90;0.60;;;;;;;10.89;72.33;95977.94;4194044;28;20040;-73
2022/04/07 09:09:36;;;;;;;0.70;0.70;;;;;;;10.92;72.64;95979.81;4195810;28;20274;-73
2022/04/07 09:11:36;;;;;;;0.60;0.60;;;;;;;10.78;72.48;95967.22;4195606;28;20041;-73
2022/04/07 09:13:39;;;;;;;1.88;0.70;;;;;;;10.69;72.95;95967.88;4197350;28;20050;-73
2022/04/07 09:15:39;;;;;;;0.82;0.52;;;;;;;10.72;71.81;95965.44;4192963;28;20381;-73
2022/04/07 09:17:51;;;;;;;0.60;0.60;;;;;;;10.67;72.45;95956.47;4195942;28;20036;-73
2022/04/07 09:19:53;;;;;;;0.50;0.50;;;;;;;10.68;72.71;95949.72;4190334;28;20368;-73
2022/04/07 09:22:08;;;;;;;1.60;0.90;;;;;;;10.73;73.01;95950.38;4195863;28;20034;-73
2022/04/07 09:24:08;;;;;;;0.70;0.70;;;;;;;10.62;72.85;95945.94;4191922;28;20365;-73
2022/04/07 09:26:13;;;;;;;0.80;0.65;;;;;;;10.55;73.04;95940.63;4197348;28;20446;-73
2022/04/07 09:28:29;;;;;;;0.60;0.60;;;;;;;10.41;73.22;95927.97;4195505;28;20025;-73
2022/04/07 09:30:37;;;;;;;4.43;0.70;;;;;;;10.48;73.87;95917.94;4198238;28;20036;-73
2022/04/07 09:32:43;;;;;;;0.60;0.60;;;;;;;10.49;73.87;95909.19;4193999;28;20061;-73
2022/04/07 09:34:44;;;;;;;0.90;0.63;;;;;;;10.49;74.44;95902.88;4195790;28;20469;-73